sensor_id;sensor_type;location;lat;lon;timestamp;temperature;humidity
44166;DHT22;30476;53.468;9.826;2022-12-07T00:01:17;5.00;99.90
44166;DHT22;30476;53.468;9.826;2022-12-07T00:03:44;5.00;99.90
44166;DHT22;30476;53.468;9.826;2022-12-07T00:06:11;5.00;99.90
44166;DHT22;30476;53.468;9.826;2022-12-07T00:08:38;5.00;99.90
44166;DHT22;30476;53.468;9.826;2022-12-07T00:11:06;5.10;99.90
44166;DHT22;30476;53.468;9.826;2022-12-07T00:13:34;5.10;99.90
44166;DHT22;30476;53.468;9.826;2022-12-07T00:16:08;5.10;99.90
44166;DHT22;30476;53.468;9.826;2022-12-07T00:18:34;5.10;99.90
44166;DHT22;30476;53.468;9.826;2022-12-07T00:21:14;5.10;99.90
44166;DHT22;30476;53.468;9.826;2022-12-07T00:23:42;5.10;99.90
44166;DHT22;30476;53.468;9.826;2022-12-07T00:26:25;5.10;99.90
44166;DHT22;30476;53.468;9.826;2022-12-07T00:28:57;5.10;99.90
44166;DHT22;30476;53.468;9.826;2022-12-07T00:31:27;5.10;99.90
44166;DHT22;30476;53.468;9.826;2022-12-07T00:33:53;5.10;99.90
44166;DHT22;30476;53.468;9.826;2022-12-07T00:36:21;5.10;99.90
44166;DHT22;30476;53.468;9.826;2022-12-07T00:38:48;5.10;99.90
44166;DHT22;30476;53.468;9.826;2022-12-07T00:41:16;5.10;99.90
44166;DHT22;30476;53.468;9.826;2022-12-07T00:43:43;5.10;99.90
44166;DHT22;30476;53.468;9.826;2022-12-07T00:46:10;5.10;99.90
44166;DHT22;30476;53.468;9.826;2022-12-07T00:48:36;5.00;99.90
44166;DHT22;30476;53.468;9.826;2022-12-07T00:51:02;5.10;99.90
44166;DHT22;30476;53.468;9.826;2022-12-07T00:53:29;5.10;99.90
44166;DHT22;30476;53.468;9.826;2022-12-07T00:55:55;5.10;99.90
44166;DHT22;30476;53.468;9.826;2022-12-07T00:58:22;5.10;99.90
44166;DHT22;30476;53.468;9.826;2022-12-07T01:00:48;5.10;99.90
44166;DHT22;30476;53.468;9.826;2022-12-07T01:03:15;5.10;99.90
44166;DHT22;30476;53.468;9.826;2022-12-07T01:05:52;5.10;99.90
44166;DHT22;30476;53.468;9.826;2022-12-07T01:08:18;5.10;99.90
44166;DHT22;30476;53.468;9.826;2022-12-07T01:10:44;5.10;99.90
44166;DHT22;30476;53.468;9.826;2022-12-07T01:13:10;5.10;99.90
44166;DHT22;30476;53.468;9.826;2022-12-07T01:15:39;5.20;99.90
44166;DHT22;30476;53.468;9.826;2022-12-07T01:18:05;5.10;99.90
44166;DHT22;30476;53.468;9.826;2022-12-07T01:20:31;5.20;99.90
44166;DHT22;30476;53.468;9.826;2022-12-07T01:22:57;5.20;99.90
44166;DHT22;30476;53.468;9.826;2022-12-07T01:25:23;5.20;99.90
44166;DHT22;30476;53.468;9.826;2022-12-07T01:27:49;5.20;99.90
44166;DHT22;30476;53.468;9.826;2022-12-07T01:30:15;5.20;99.90
44166;DHT22;30476;53.468;9.826;2022-12-07T01:32:41;5.20;99.90
44166;DHT22;30476;53.468;9.826;2022-12-07T01:35:07;5.30;99.90
44166;DHT22;30476;53.468;9.826;2022-12-07T01:37:37;5.30;99.90
44166;DHT22;30476;53.468;9.826;2022-12-07T01:40:05;5.30;99.90
44166;DHT22;30476;53.468;9.826;2022-12-07T01:42:31;5.20;99.90
44166;DHT22;30476;53.468;9.826;2022-12-07T01:47:42;5.20;99.90
44166;DHT22;30476;53.468;9.826;2022-12-07T01:50:08;5.20;99.90
44166;DHT22;30476;53.468;9.826;2022-12-07T01:52:36;5.20;99.90
44166;DHT22;30476;53.468;9.826;2022-12-07T01:55:07;5.20;99.90
44166;DHT22;30476;53.468;9.826;2022-12-07T01:57:35;5.20;99.90
44166;DHT22;30476;53.468;9.826;2022-12-07T02:00:04;5.20;99.90
44166;DHT22;30476;53.468;9.826;2022-12-07T02:02:35;5.20;99.90
44166;DHT22;30476;53.468;9.826;2022-12-07T02:05:04;5.20;99.90
44166;DHT22;30476;53.468;9.826;2022-12-07T02:07:31;5.20;99.90
44166;DHT22;30476;53.468;9.826;2022-12-07T02:10:21;5.20;99.90
44166;DHT22;30476;53.468;9.826;2022-12-07T02:13:27;5.10;99.90
44166;DHT22;30476;53.468;9.826;2022-12-07T02:21:53;5.00;99.90
44166;DHT22;30476;53.468;9.826;2022-12-07T02:24:53;5.00;99.90
44166;DHT22;30476;53.468;9.826;2022-12-07T02:27:28;5.00;99.90
44166;DHT22;30476;53.468;9.826;2022-12-07T02:34:50;4.90;99.90
44166;DHT22;30476;53.468;9.826;2022-12-07T02:42:42;4.90;99.90
44166;DHT22;30476;53.468;9.826;2022-12-07T02:45:10;4.90;99.90
44166;DHT22;30476;53.468;9.826;2022-12-07T02:47:39;4.80;99.90
44166;DHT22;30476;53.468;9.826;2022-12-07T02:50:07;4.80;99.90
44166;DHT22;30476;53.468;9.826;2022-12-07T02:52:33;4.80;99.90
44166;DHT22;30476;53.468;9.826;2022-12-07T02:54:59;4.80;99.90
44166;DHT22;30476;53.468;9.826;2022-12-07T02:57:41;4.80;99.90
44166;DHT22;30476;53.468;9.826;2022-12-07T03:00:14;4.80;99.90
44166;DHT22;30476;53.468;9.826;2022-12-07T03:03:06;4.80;99.90
44166;DHT22;30476;53.468;9.826;2022-12-07T03:06:27;4.80;99.90
44166;DHT22;30476;53.468;9.826;2022-12-07T03:08:58;4.70;99.90
44166;DHT22;30476;53.468;9.826;2022-12-07T03:14:07;4.70;99.90
44166;DHT22;30476;53.468;9.826;2022-12-07T03:17:09;4.70;99.90
44166;DHT22;30476;53.468;9.826;2022-12-07T03:19:38;4.60;99.90
44166;DHT22;30476;53.468;9.826;2022-12-07T03:22:10;4.60;99.90
44166;DHT22;30476;53.468;9.826;2022-12-07T03:25:07;4.60;99.90
44166;DHT22;30476;53.468;9.826;2022-12-07T03:27:39;4.70;99.90
44166;DHT22;30476;53.468;9.826;2022-12-07T03:30:12;4.60;99.90
44166;DHT22;30476;53.468;9.826;2022-12-07T03:32:42;4.70;99.90
44166;DHT22;30476;53.468;9.826;2022-12-07T03:35:18;4.60;99.90
44166;DHT22;30476;53.468;9.826;2022-12-07T03:37:47;4.60;99.90
44166;DHT22;30476;53.468;9.826;2022-12-07T03:43:17;4.50;99.90
44166;DHT22;30476;53.468;9.826;2022-12-07T03:48:41;4.50;99.90
44166;DHT22;30476;53.468;9.826;2022-12-07T03:51:27;4.50;99.90
44166;DHT22;30476;53.468;9.826;2022-12-07T03:54:19;4.40;99.90
44166;DHT22;30476;53.468;9.826;2022-12-07T03:56:47;4.40;99.90
44166;DHT22;30476;53.468;9.826;2022-12-07T03:59:14;4.40;99.90
44166;DHT22;30476;53.468;9.826;2022-12-07T04:01:45;4.40;99.90
44166;DHT22;30476;53.468;9.826;2022-12-07T04:04:17;4.40;99.90
44166;DHT22;30476;53.468;9.826;2022-12-07T04:06:42;4.40;99.90
44166;DHT22;30476;53.468;9.826;2022-12-07T04:09:08;4.30;99.90
44166;DHT22;30476;53.468;9.826;2022-12-07T04:11:34;4.30;99.90
44166;DHT22;30476;53.468;9.826;2022-12-07T04:14:00;4.30;99.90
44166;DHT22;30476;53.468;9.826;2022-12-07T04:16:45;4.30;99.90
44166;DHT22;30476;53.468;9.826;2022-12-07T04:19:12;4.30;99.90
44166;DHT22;30476;53.468;9.826;2022-12-07T04:21:38;4.20;99.90
44166;DHT22;30476;53.468;9.826;2022-12-07T04:24:04;4.20;99.90
44166;DHT22;30476;53.468;9.826;2022-12-07T04:26:30;4.20;99.90
44166;DHT22;30476;53.468;9.826;2022-12-07T04:28:56;4.20;99.90
44166;DHT22;30476;53.468;9.826;2022-12-07T04:31:21;4.20;99.90
44166;DHT22;30476;53.468;9.826;2022-12-07T04:33:47;4.20;99.90
44166;DHT22;30476;53.468;9.826;2022-12-07T04:36:13;4.20;99.90
44166;DHT22;30476;53.468;9.826;2022-12-07T04:38:39;4.20;99.90
44166;DHT22;30476;53.468;9.826;2022-12-07T04:41:08;4.20;99.90
44166;DHT22;30476;53.468;9.826;2022-12-07T04:43:35;4.20;99.90
44166;DHT22;30476;53.468;9.826;2022-12-07T04:46:01;4.20;99.90
44166;DHT22;30476;53.468;9.826;2022-12-07T04:48:27;4.20;99.90
44166;DHT22;30476;53.468;9.826;2022-12-07T04:50:53;4.20;99.90
44166;DHT22;30476;53.468;9.826;2022-12-07T04:53:19;4.20;99.90
44166;DHT22;30476;53.468;9.826;2022-12-07T04:55:45;4.20;99.90
44166;DHT22;30476;53.468;9.826;2022-12-07T04:58:12;4.20;99.90
44166;DHT22;30476;53.468;9.826;2022-12-07T05:00:38;4.30;99.90
44166;DHT22;30476;53.468;9.826;2022-12-07T05:03:04;4.20;99.90
44166;DHT22;30476;53.468;9.826;2022-12-07T05:05:30;4.20;99.90
44166;DHT22;30476;53.468;9.826;2022-12-07T05:07:56;4.30;99.90
44166;DHT22;30476;53.468;9.826;2022-12-07T05:10:22;4.30;99.90
44166;DHT22;30476;53.468;9.826;2022-12-07T05:12:48;4.30;99.90
44166;DHT22;30476;53.468;9.826;2022-12-07T05:15:14;4.30;99.90
44166;DHT22;30476;53.468;9.826;2022-12-07T05:17:41;4.20;99.90
44166;DHT22;30476;53.468;9.826;2022-12-07T05:20:07;4.30;99.90
44166;DHT22;30476;53.468;9.826;2022-12-07T05:22:33;4.20;99.90
44166;DHT22;30476;53.468;9.826;2022-12-07T05:24:59;4.20;99.90
44166;DHT22;30476;53.468;9.826;2022-12-07T05:27:25;4.20;99.90
44166;DHT22;30476;53.468;9.826;2022-12-07T05:29:51;4.20;99.90
44166;DHT22;30476;53.468;9.826;2022-12-07T05:32:17;4.20;99.90
44166;DHT22;30476;53.468;9.826;2022-12-07T05:34:43;4.20;99.90
44166;DHT22;30476;53.468;9.826;2022-12-07T05:37:09;4.20;99.90
44166;DHT22;30476;53.468;9.826;2022-12-07T05:39:35;4.20;99.90
44166;DHT22;30476;53.468;9.826;2022-12-07T05:42:01;4.10;99.90
44166;DHT22;30476;53.468;9.826;2022-12-07T05:44:43;4.10;99.90
44166;DHT22;30476;53.468;9.826;2022-12-07T05:47:10;4.10;99.90
44166;DHT22;30476;53.468;9.826;2022-12-07T05:49:37;4.10;99.90
44166;DHT22;30476;53.468;9.826;2022-12-07T05:52:03;4.10;99.90
44166;DHT22;30476;53.468;9.826;2022-12-07T05:54:29;4.00;99.90
44166;DHT22;30476;53.468;9.826;2022-12-07T05:56:55;4.00;99.90
44166;DHT22;30476;53.468;9.826;2022-12-07T05:59:21;4.00;99.90
44166;DHT22;30476;53.468;9.826;2022-12-07T06:01:53;4.00;99.90
44166;DHT22;30476;53.468;9.826;2022-12-07T06:04:20;4.00;99.90
44166;DHT22;30476;53.468;9.826;2022-12-07T06:06:46;4.00;99.90
44166;DHT22;30476;53.468;9.826;2022-12-07T06:09:12;4.00;99.90
44166;DHT22;30476;53.468;9.826;2022-12-07T06:11:39;4.00;99.90
44166;DHT22;30476;53.468;9.826;2022-12-07T06:14:23;4.00;99.90
44166;DHT22;30476;53.468;9.826;2022-12-07T06:16:49;4.00;99.90
44166;DHT22;30476;53.468;9.826;2022-12-07T06:19:15;4.00;99.90
44166;DHT22;30476;53.468;9.826;2022-12-07T06:21:41;4.00;99.90
44166;DHT22;30476;53.468;9.826;2022-12-07T06:24:10;4.00;99.90
44166;DHT22;30476;53.468;9.826;2022-12-07T06:26:36;4.00;99.90
44166;DHT22;30476;53.468;9.826;2022-12-07T06:29:02;3.90;99.90
44166;DHT22;30476;53.468;9.826;2022-12-07T06:31:28;3.90;99.90
44166;DHT22;30476;53.468;9.826;2022-12-07T06:33:58;3.90;99.90
44166;DHT22;30476;53.468;9.826;2022-12-07T06:36:24;3.90;99.90
44166;DHT22;30476;53.468;9.826;2022-12-07T06:38:50;3.90;99.90
44166;DHT22;30476;53.468;9.826;2022-12-07T06:41:15;3.90;99.90
44166;DHT22;30476;53.468;9.826;2022-12-07T06:43:41;3.90;99.90
44166;DHT22;30476;53.468;9.826;2022-12-07T06:46:08;3.90;99.90
44166;DHT22;30476;53.468;9.826;2022-12-07T06:48:34;3.80;99.90
44166;DHT22;30476;53.468;9.826;2022-12-07T06:51:00;3.80;99.90
44166;DHT22;30476;53.468;9.826;2022-12-07T06:53:25;3.80;99.90
44166;DHT22;30476;53.468;9.826;2022-12-07T06:55:51;3.80;99.90
44166;DHT22;30476;53.468;9.826;2022-12-07T06:58:17;3.90;99.90
44166;DHT22;30476;53.468;9.826;2022-12-07T07:00:44;3.90;99.90
44166;DHT22;30476;53.468;9.826;2022-12-07T07:03:10;3.90;99.90
44166;DHT22;30476;53.468;9.826;2022-12-07T07:05:36;3.90;99.90
44166;DHT22;30476;53.468;9.826;2022-12-07T07:08:02;3.90;99.90
44166;DHT22;30476;53.468;9.826;2022-12-07T07:10:28;3.90;99.90
44166;DHT22;30476;53.468;9.826;2022-12-07T07:12:54;3.90;99.90
44166;DHT22;30476;53.468;9.826;2022-12-07T07:15:20;3.90;99.90
44166;DHT22;30476;53.468;9.826;2022-12-07T07:17:45;3.90;99.90
44166;DHT22;30476;53.468;9.826;2022-12-07T07:20:11;3.90;99.90
44166;DHT22;30476;53.468;9.826;2022-12-07T07:22:37;3.90;99.90
44166;DHT22;30476;53.468;9.826;2022-12-07T07:25:03;4.00;99.90
44166;DHT22;30476;53.468;9.826;2022-12-07T07:27:29;3.90;99.90
44166;DHT22;30476;53.468;9.826;2022-12-07T07:29:55;4.00;99.90
44166;DHT22;30476;53.468;9.826;2022-12-07T07:32:21;3.90;99.90
44166;DHT22;30476;53.468;9.826;2022-12-07T07:34:47;3.90;99.90
44166;DHT22;30476;53.468;9.826;2022-12-07T07:37:13;4.00;99.90
44166;DHT22;30476;53.468;9.826;2022-12-07T07:39:39;4.00;99.90
44166;DHT22;30476;53.468;9.826;2022-12-07T07:42:05;4.00;99.90
44166;DHT22;30476;53.468;9.826;2022-12-07T07:44:33;4.00;99.90
44166;DHT22;30476;53.468;9.826;2022-12-07T07:46:59;3.90;99.90
44166;DHT22;30476;53.468;9.826;2022-12-07T07:49:26;4.00;99.90
44166;DHT22;30476;53.468;9.826;2022-12-07T07:51:52;4.00;99.90
44166;DHT22;30476;53.468;9.826;2022-12-07T07:54:18;4.00;99.90
44166;DHT22;30476;53.468;9.826;2022-12-07T07:56:43;4.00;99.90
44166;DHT22;30476;53.468;9.826;2022-12-07T07:59:09;4.00;99.90
44166;DHT22;30476;53.468;9.826;2022-12-07T08:01:35;4.00;99.90
44166;DHT22;30476;53.468;9.826;2022-12-07T08:04:01;4.00;99.90
44166;DHT22;30476;53.468;9.826;2022-12-07T08:06:26;4.00;99.90
44166;DHT22;30476;53.468;9.826;2022-12-07T08:08:52;4.00;99.90
44166;DHT22;30476;53.468;9.826;2022-12-07T08:11:18;4.10;99.90
44166;DHT22;30476;53.468;9.826;2022-12-07T08:13:47;4.10;99.90
44166;DHT22;30476;53.468;9.826;2022-12-07T08:16:13;4.10;99.90
44166;DHT22;30476;53.468;9.826;2022-12-07T08:18:40;4.10;99.90
44166;DHT22;30476;53.468;9.826;2022-12-07T08:21:08;4.10;99.90
44166;DHT22;30476;53.468;9.826;2022-12-07T08:23:35;4.10;99.90
44166;DHT22;30476;53.468;9.826;2022-12-07T08:26:02;4.10;99.90
44166;DHT22;30476;53.468;9.826;2022-12-07T08:28:29;4.10;99.90
44166;DHT22;30476;53.468;9.826;2022-12-07T08:31:21;4.20;99.90
44166;DHT22;30476;53.468;9.826;2022-12-07T08:33:48;4.20;99.90
44166;DHT22;30476;53.468;9.826;2022-12-07T08:36:14;4.30;99.90
44166;DHT22;30476;53.468;9.826;2022-12-07T08:38:41;4.20;99.90
44166;DHT22;30476;53.468;9.826;2022-12-07T08:41:07;4.20;99.90
44166;DHT22;30476;53.468;9.826;2022-12-07T08:43:33;4.30;99.90
44166;DHT22;30476;53.468;9.826;2022-12-07T08:46:07;4.30;99.90
44166;DHT22;30476;53.468;9.826;2022-12-07T08:48:37;4.30;99.90
44166;DHT22;30476;53.468;9.826;2022-12-07T08:51:04;4.40;99.90
44166;DHT22;30476;53.468;9.826;2022-12-07T08:53:32;4.40;99.90
44166;DHT22;30476;53.468;9.826;2022-12-07T08:55:59;4.50;99.90
44166;DHT22;30476;53.468;9.826;2022-12-07T08:58:24;4.40;99.90
44166;DHT22;30476;53.468;9.826;2022-12-07T09:00:50;4.50;99.90
44166;DHT22;30476;53.468;9.826;2022-12-07T09:03:16;4.50;99.90
44166;DHT22;30476;53.468;9.826;2022-12-07T09:05:42;4.50;99.90
44166;DHT22;30476;53.468;9.826;2022-12-07T09:08:08;4.60;99.90
44166;DHT22;30476;53.468;9.826;2022-12-07T09:10:34;4.50;99.90
44166;DHT22;30476;53.468;9.826;2022-12-07T09:12:59;4.60;99.90
44166;DHT22;30476;53.468;9.826;2022-12-07T09:15:27;4.60;99.90
44166;DHT22;30476;53.468;9.826;2022-12-07T09:17:53;4.60;99.90
44166;DHT22;30476;53.468;9.826;2022-12-07T09:20:19;4.70;99.90
44166;DHT22;30476;53.468;9.826;2022-12-07T09:22:45;4.70;99.90
44166;DHT22;30476;53.468;9.826;2022-12-07T09:25:11;4.70;99.90
44166;DHT22;30476;53.468;9.826;2022-12-07T09:27:37;4.70;99.90
44166;DHT22;30476;53.468;9.826;2022-12-07T09:30:04;4.80;99.90
44166;DHT22;30476;53.468;9.826;2022-12-07T09:32:30;4.80;99.90
44166;DHT22;30476;53.468;9.826;2022-12-07T09:34:56;4.80;99.90
44166;DHT22;30476;53.468;9.826;2022-12-07T09:37:22;4.90;99.90
44166;DHT22;30476;53.468;9.826;2022-12-07T09:39:47;4.90;99.90
44166;DHT22;30476;53.468;9.826;2022-12-07T09:42:34;5.00;99.90
44166;DHT22;30476;53.468;9.826;2022-12-07T09:45:02;5.00;99.90
44166;DHT22;30476;53.468;9.826;2022-12-07T09:47:30;5.00;99.90
44166;DHT22;30476;53.468;9.826;2022-12-07T09:50:03;5.10;99.90
44166;DHT22;30476;53.468;9.826;2022-12-07T09:52:30;5.10;99.90
44166;DHT22;30476;53.468;9.826;2022-12-07T09:54:56;5.10;99.90
44166;DHT22;30476;53.468;9.826;2022-12-07T09:57:28;5.10;99.90
44166;DHT22;30476;53.468;9.826;2022-12-07T10:00:00;5.10;99.90
44166;DHT22;30476;53.468;9.826;2022-12-07T10:04:52;5.20;99.90
44166;DHT22;30476;53.468;9.826;2022-12-07T10:07:18;5.20;99.90
44166;DHT22;30476;53.468;9.826;2022-12-07T10:09:44;5.20;99.90
44166;DHT22;30476;53.468;9.826;2022-12-07T10:12:12;5.20;99.90
44166;DHT22;30476;53.468;9.826;2022-12-07T10:14:51;5.20;99.90
44166;DHT22;30476;53.468;9.826;2022-12-07T10:17:37;5.30;99.90
44166;DHT22;30476;53.468;9.826;2022-12-07T10:22:37;5.30;99.90
44166;DHT22;30476;53.468;9.826;2022-12-07T10:25:18;5.20;99.90
44166;DHT22;30476;53.468;9.826;2022-12-07T10:27:57;5.40;99.90
44166;DHT22;30476;53.468;9.826;2022-12-07T10:30:24;5.40;99.90
44166;DHT22;30476;53.468;9.826;2022-12-07T10:32:49;5.40;99.90
44166;DHT22;30476;53.468;9.826;2022-12-07T10:35:25;5.40;99.90
44166;DHT22;30476;53.468;9.826;2022-12-07T10:37:52;5.40;99.90
44166;DHT22;30476;53.468;9.826;2022-12-07T10:40:32;5.40;99.90
44166;DHT22;30476;53.468;9.826;2022-12-07T10:43:23;5.40;99.90
44166;DHT22;30476;53.468;9.826;2022-12-07T10:46:06;5.50;99.90
44166;DHT22;30476;53.468;9.826;2022-12-07T10:51:55;5.50;99.90
44166;DHT22;30476;53.468;9.826;2022-12-07T10:54:40;5.50;99.90
44166;DHT22;30476;53.468;9.826;2022-12-07T11:00:09;5.50;99.90
44166;DHT22;30476;53.468;9.826;2022-12-07T11:08:20;5.50;99.90
44166;DHT22;30476;53.468;9.826;2022-12-07T11:11:01;5.50;99.90
44166;DHT22;30476;53.468;9.826;2022-12-07T11:13:56;5.60;99.90
44166;DHT22;30476;53.468;9.826;2022-12-07T11:22:26;5.60;99.90
44166;DHT22;30476;53.468;9.826;2022-12-07T11:25:41;5.60;99.90
44166;DHT22;30476;53.468;9.826;2022-12-07T11:28:02;5.70;99.90
44166;DHT22;30476;53.468;9.826;2022-12-07T11:30:34;5.70;99.90
44166;DHT22;30476;53.468;9.826;2022-12-07T11:33:19;5.70;99.90
44166;DHT22;30476;53.468;9.826;2022-12-07T11:38:28;5.80;99.90
44166;DHT22;30476;53.468;9.826;2022-12-07T11:41:02;5.80;99.90
44166;DHT22;30476;53.468;9.826;2022-12-07T11:43:50;5.90;99.90
44166;DHT22;30476;53.468;9.826;2022-12-07T11:46:18;5.90;99.90
44166;DHT22;30476;53.468;9.826;2022-12-07T11:49:02;5.90;99.90
44166;DHT22;30476;53.468;9.826;2022-12-07T11:54:32;6.00;99.90
44166;DHT22;30476;53.468;9.826;2022-12-07T11:57:04;6.00;99.90
44166;DHT22;30476;53.468;9.826;2022-12-07T11:59:39;6.00;99.90
44166;DHT22;30476;53.468;9.826;2022-12-07T12:02:20;6.10;99.90
44166;DHT22;30476;53.468;9.826;2022-12-07T12:05:19;6.10;99.90
44166;DHT22;30476;53.468;9.826;2022-12-07T12:07:52;6.10;99.90
44166;DHT22;30476;53.468;9.826;2022-12-07T12:10:27;6.10;99.90
44166;DHT22;30476;53.468;9.826;2022-12-07T12:18:47;6.20;99.90
44166;DHT22;30476;53.468;9.826;2022-12-07T12:21:20;6.20;99.90
44166;DHT22;30476;53.468;9.826;2022-12-07T12:23:52;6.20;99.90
44166;DHT22;30476;53.468;9.826;2022-12-07T12:26:27;6.20;99.90
44166;DHT22;30476;53.468;9.826;2022-12-07T12:28:59;6.20;99.90
44166;DHT22;30476;53.468;9.826;2022-12-07T12:31:34;6.20;99.90
44166;DHT22;30476;53.468;9.826;2022-12-07T12:34:10;6.20;99.90
44166;DHT22;30476;53.468;9.826;2022-12-07T12:36:47;6.20;99.90
44166;DHT22;30476;53.468;9.826;2022-12-07T12:39:15;6.30;99.90
44166;DHT22;30476;53.468;9.826;2022-12-07T12:50:17;6.40;99.90
44166;DHT22;30476;53.468;9.826;2022-12-07T12:52:50;6.40;99.90
44166;DHT22;30476;53.468;9.826;2022-12-07T12:55:18;6.40;99.90
44166;DHT22;30476;53.468;9.826;2022-12-07T12:57:48;6.40;99.90
44166;DHT22;30476;53.468;9.826;2022-12-07T13:00:33;6.40;99.90
44166;DHT22;30476;53.468;9.826;2022-12-07T13:02:59;6.40;99.90
44166;DHT22;30476;53.468;9.826;2022-12-07T13:05:28;6.40;99.90
44166;DHT22;30476;53.468;9.826;2022-12-07T13:08:02;6.50;99.90
44166;DHT22;30476;53.468;9.826;2022-12-07T13:10:37;6.40;99.90
44166;DHT22;30476;53.468;9.826;2022-12-07T13:15:49;6.50;99.90
44166;DHT22;30476;53.468;9.826;2022-12-07T13:26:18;6.50;99.90
44166;DHT22;30476;53.468;9.826;2022-12-07T13:29:11;6.50;99.90
44166;DHT22;30476;53.468;9.826;2022-12-07T13:31:41;6.50;99.90
44166;DHT22;30476;53.468;9.826;2022-12-07T13:36:52;6.40;99.90
44166;DHT22;30476;53.468;9.826;2022-12-07T13:39:20;6.40;99.90
44166;DHT22;30476;53.468;9.826;2022-12-07T13:41:56;6.40;99.90
44166;DHT22;30476;53.468;9.826;2022-12-07T13:44:24;6.40;99.90
44166;DHT22;30476;53.468;9.826;2022-12-07T13:49:29;6.30;99.90
44166;DHT22;30476;53.468;9.826;2022-12-07T13:52:23;6.20;99.90
44166;DHT22;30476;53.468;9.826;2022-12-07T13:54:59;6.20;99.90
44166;DHT22;30476;53.468;9.826;2022-12-07T13:57:27;6.20;99.90
44166;DHT22;30476;53.468;9.826;2022-12-07T13:59:54;6.20;99.90
44166;DHT22;30476;53.468;9.826;2022-12-07T14:02:26;6.10;99.90
44166;DHT22;30476;53.468;9.826;2022-12-07T14:07:53;6.10;99.90
44166;DHT22;30476;53.468;9.826;2022-12-07T14:16:32;6.00;99.90
44166;DHT22;30476;53.468;9.826;2022-12-07T14:18:59;6.00;99.90
44166;DHT22;30476;53.468;9.826;2022-12-07T14:21:28;6.00;99.90
44166;DHT22;30476;53.468;9.826;2022-12-07T14:26:38;6.00;99.90
44166;DHT22;30476;53.468;9.826;2022-12-07T14:31:47;6.00;99.90
44166;DHT22;30476;53.468;9.826;2022-12-07T14:34:13;6.00;99.90
44166;DHT22;30476;53.468;9.826;2022-12-07T14:36:39;6.00;99.90
44166;DHT22;30476;53.468;9.826;2022-12-07T14:39:05;6.00;99.90
44166;DHT22;30476;53.468;9.826;2022-12-07T14:41:31;5.90;99.90
44166;DHT22;30476;53.468;9.826;2022-12-07T14:44:29;5.90;99.90
44166;DHT22;30476;53.468;9.826;2022-12-07T14:46:55;5.90;99.90
44166;DHT22;30476;53.468;9.826;2022-12-07T14:49:21;5.90;99.90
44166;DHT22;30476;53.468;9.826;2022-12-07T14:51:47;5.90;99.90
44166;DHT22;30476;53.468;9.826;2022-12-07T14:54:16;5.80;99.90
44166;DHT22;30476;53.468;9.826;2022-12-07T14:56:43;5.80;99.90
44166;DHT22;30476;53.468;9.826;2022-12-07T14:59:10;5.80;99.90
44166;DHT22;30476;53.468;9.826;2022-12-07T15:01:37;5.70;99.90
44166;DHT22;30476;53.468;9.826;2022-12-07T15:04:03;5.70;99.90
44166;DHT22;30476;53.468;9.826;2022-12-07T15:06:28;5.60;99.90
44166;DHT22;30476;53.468;9.826;2022-12-07T15:08:54;5.60;99.90
44166;DHT22;30476;53.468;9.826;2022-12-07T15:11:20;5.50;99.90
44166;DHT22;30476;53.468;9.826;2022-12-07T15:13:46;5.50;99.90
44166;DHT22;30476;53.468;9.826;2022-12-07T15:16:31;5.50;99.90
44166;DHT22;30476;53.468;9.826;2022-12-07T15:18:57;5.40;99.90
44166;DHT22;30476;53.468;9.826;2022-12-07T15:21:22;5.30;99.90
44166;DHT22;30476;53.468;9.826;2022-12-07T15:23:48;5.30;99.90
44166;DHT22;30476;53.468;9.826;2022-12-07T15:26:14;5.30;99.90
44166;DHT22;30476;53.468;9.826;2022-12-07T15:28:41;5.20;99.90
44166;DHT22;30476;53.468;9.826;2022-12-07T15:31:14;5.10;99.90
44166;DHT22;30476;53.468;9.826;2022-12-07T15:33:40;5.20;99.90
44166;DHT22;30476;53.468;9.826;2022-12-07T15:36:06;5.10;99.90
44166;DHT22;30476;53.468;9.826;2022-12-07T15:38:32;5.10;99.90
44166;DHT22;30476;53.468;9.826;2022-12-07T15:40:58;5.10;99.90
44166;DHT22;30476;53.468;9.826;2022-12-07T15:43:23;5.10;99.90
44166;DHT22;30476;53.468;9.826;2022-12-07T15:46:08;5.10;99.90
44166;DHT22;30476;53.468;9.826;2022-12-07T15:48:34;5.00;99.90
44166;DHT22;30476;53.468;9.826;2022-12-07T15:51:07;5.00;99.90
44166;DHT22;30476;53.468;9.826;2022-12-07T15:53:34;5.00;99.90
44166;DHT22;30476;53.468;9.826;2022-12-07T15:56:01;5.00;99.90
44166;DHT22;30476;53.468;9.826;2022-12-07T15:58:27;4.90;99.90
44166;DHT22;30476;53.468;9.826;2022-12-07T16:00:52;4.90;99.90
44166;DHT22;30476;53.468;9.826;2022-12-07T16:03:18;4.90;99.90
44166;DHT22;30476;53.468;9.826;2022-12-07T16:05:51;4.90;99.90
44166;DHT22;30476;53.468;9.826;2022-12-07T16:08:18;4.90;99.90
44166;DHT22;30476;53.468;9.826;2022-12-07T16:10:44;4.80;99.90
44166;DHT22;30476;53.468;9.826;2022-12-07T16:13:11;4.80;99.90
44166;DHT22;30476;53.468;9.826;2022-12-07T16:15:43;4.80;99.90
44166;DHT22;30476;53.468;9.826;2022-12-07T16:18:08;4.70;99.90
44166;DHT22;30476;53.468;9.826;2022-12-07T16:20:34;4.60;99.90
44166;DHT22;30476;53.468;9.826;2022-12-07T16:23:00;4.60;99.90
44166;DHT22;30476;53.468;9.826;2022-12-07T16:25:26;4.60;99.90
44166;DHT22;30476;53.468;9.826;2022-12-07T16:27:52;4.60;99.90
44166;DHT22;30476;53.468;9.826;2022-12-07T16:30:18;4.50;99.90
44166;DHT22;30476;53.468;9.826;2022-12-07T16:32:44;4.50;99.90
44166;DHT22;30476;53.468;9.826;2022-12-07T16:35:10;4.40;99.90
44166;DHT22;30476;53.468;9.826;2022-12-07T16:37:37;4.40;99.90
44166;DHT22;30476;53.468;9.826;2022-12-07T16:40:03;4.30;99.90
44166;DHT22;30476;53.468;9.826;2022-12-07T16:42:35;4.30;99.90
44166;DHT22;30476;53.468;9.826;2022-12-07T16:45:01;4.30;99.90
44166;DHT22;30476;53.468;9.826;2022-12-07T16:47:27;4.20;99.90
44166;DHT22;30476;53.468;9.826;2022-12-07T16:49:53;4.20;99.90
44166;DHT22;30476;53.468;9.826;2022-12-07T16:52:20;4.20;99.90
44166;DHT22;30476;53.468;9.826;2022-12-07T16:54:48;4.20;99.90
44166;DHT22;30476;53.468;9.826;2022-12-07T16:57:14;4.20;99.90
44166;DHT22;30476;53.468;9.826;2022-12-07T16:59:39;4.10;99.90
44166;DHT22;30476;53.468;9.826;2022-12-07T17:02:05;4.10;99.90
44166;DHT22;30476;53.468;9.826;2022-12-07T17:04:33;4.10;99.90
44166;DHT22;30476;53.468;9.826;2022-12-07T17:06:59;4.10;99.90
44166;DHT22;30476;53.468;9.826;2022-12-07T17:09:25;4.10;99.90
44166;DHT22;30476;53.468;9.826;2022-12-07T17:11:51;4.00;99.90
44166;DHT22;30476;53.468;9.826;2022-12-07T17:14:17;4.00;99.90
44166;DHT22;30476;53.468;9.826;2022-12-07T17:17:01;3.90;99.90
44166;DHT22;30476;53.468;9.826;2022-12-07T17:19:27;3.90;99.90
44166;DHT22;30476;53.468;9.826;2022-12-07T17:21:53;3.90;99.90
44166;DHT22;30476;53.468;9.826;2022-12-07T17:24:19;3.90;99.90
44166;DHT22;30476;53.468;9.826;2022-12-07T17:26:45;3.90;99.90
44166;DHT22;30476;53.468;9.826;2022-12-07T17:29:13;3.80;99.90
44166;DHT22;30476;53.468;9.826;2022-12-07T17:31:40;3.80;99.90
44166;DHT22;30476;53.468;9.826;2022-12-07T17:34:11;3.80;99.90
44166;DHT22;30476;53.468;9.826;2022-12-07T17:36:37;3.80;99.90
44166;DHT22;30476;53.468;9.826;2022-12-07T17:39:11;3.80;99.90
44166;DHT22;30476;53.468;9.826;2022-12-07T17:41:37;3.80;99.90